sensor_id;sensor_type;location;lat;lon;timestamp;temperature;humidity
17918;DHT22;9084;50.956;3.106;2024-01-27T00:02:13;3.70;1.00
17918;DHT22;9084;50.956;3.106;2024-01-27T00:04:41;3.70;1.00
17918;DHT22;9084;50.956;3.106;2024-01-27T00:07:07;3.60;1.00
17918;DHT22;9084;50.956;3.106;2024-01-27T00:09:32;3.60;1.00
17918;DHT22;9084;50.956;3.106;2024-01-27T00:12:00;3.60;1.00
17918;DHT22;9084;50.956;3.106;2024-01-27T00:14:27;3.50;1.00
17918;DHT22;9084;50.956;3.106;2024-01-27T00:16:52;3.50;1.00
17918;DHT22;9084;50.956;3.106;2024-01-27T00:19:18;3.50;1.00
17918;DHT22;9084;50.956;3.106;2024-01-27T00:21:44;3.50;1.00
17918;DHT22;9084;50.956;3.106;2024-01-27T00:24:13;3.50;1.00
17918;DHT22;9084;50.956;3.106;2024-01-27T00:26:44;3.50;1.00
17918;DHT22;9084;50.956;3.106;2024-01-27T00:29:09;3.50;8.20
17918;DHT22;9084;50.956;3.106;2024-01-27T00:31:35;3.50;1.00
17918;DHT22;9084;50.956;3.106;2024-01-27T00:34:01;3.50;1.00
17918;DHT22;9084;50.956;3.106;2024-01-27T00:36:27;3.40;1.00
17918;DHT22;9084;50.956;3.106;2024-01-27T00:38:55;3.40;1.00
17918;DHT22;9084;50.956;3.106;2024-01-27T00:41:20;3.40;1.00
17918;DHT22;9084;50.956;3.106;2024-01-27T00:43:46;3.40;1.00
17918;DHT22;9084;50.956;3.106;2024-01-27T00:46:12;3.40;1.00
17918;DHT22;9084;50.956;3.106;2024-01-27T00:48:40;3.40;1.00
17918;DHT22;9084;50.956;3.106;2024-01-27T00:51:05;3.40;1.00
17918;DHT22;9084;50.956;3.106;2024-01-27T00:53:33;3.40;1.00
17918;DHT22;9084;50.956;3.106;2024-01-27T00:55:59;3.40;1.00
17918;DHT22;9084;50.956;3.106;2024-01-27T00:58:27;3.30;1.00
17918;DHT22;9084;50.956;3.106;2024-01-27T01:00:55;3.30;1.00
17918;DHT22;9084;50.956;3.106;2024-01-27T01:03:21;3.30;1.00
17918;DHT22;9084;50.956;3.106;2024-01-27T01:05:46;3.30;1.00
17918;DHT22;9084;50.956;3.106;2024-01-27T01:08:19;3.30;8.90
17918;DHT22;9084;50.956;3.106;2024-01-27T01:10:47;3.30;6.70
17918;DHT22;9084;50.956;3.106;2024-01-27T01:13:13;3.30;1.00
17918;DHT22;9084;50.956;3.106;2024-01-27T01:15:38;3.20;1.00
17918;DHT22;9084;50.956;3.106;2024-01-27T01:18:05;3.20;1.00
17918;DHT22;9084;50.956;3.106;2024-01-27T01:20:30;3.20;1.00
17918;DHT22;9084;50.956;3.106;2024-01-27T01:23:00;3.30;1.00
17918;DHT22;9084;50.956;3.106;2024-01-27T01:25:28;3.20;10.60
17918;DHT22;9084;50.956;3.106;2024-01-27T01:27:56;3.20;36.90
17918;DHT22;9084;50.956;3.106;2024-01-27T01:30:22;3.30;16.80
17918;DHT22;9084;50.956;3.106;2024-01-27T01:32:52;3.20;1.00
17918;DHT22;9084;50.956;3.106;2024-01-27T01:35:20;3.10;1.00
17918;DHT22;9084;50.956;3.106;2024-01-27T01:37:50;3.10;1.00
17918;DHT22;9084;50.956;3.106;2024-01-27T01:40:18;3.10;6.90
17918;DHT22;9084;50.956;3.106;2024-01-27T01:42:50;3.10;27.60
17918;DHT22;9084;50.956;3.106;2024-01-27T01:45:16;3.10;37.60
17918;DHT22;9084;50.956;3.106;2024-01-27T01:47:45;3.20;82.90
17918;DHT22;9084;50.956;3.106;2024-01-27T01:50:11;3.20;94.80
17918;DHT22;9084;50.956;3.106;2024-01-27T01:52:42;3.20;73.30
17918;DHT22;9084;50.956;3.106;2024-01-27T01:55:07;3.20;39.20
17918;DHT22;9084;50.956;3.106;2024-01-27T01:57:35;3.10;30.40
17918;DHT22;9084;50.956;3.106;2024-01-27T02:00:01;3.20;29.40
17918;DHT22;9084;50.956;3.106;2024-01-27T02:02:29;3.10;24.40
17918;DHT22;9084;50.956;3.106;2024-01-27T02:04:55;3.10;26.80
17918;DHT22;9084;50.956;3.106;2024-01-27T02:07:20;3.10;29.10
17918;DHT22;9084;50.956;3.106;2024-01-27T02:09:46;3.00;30.20
17918;DHT22;9084;50.956;3.106;2024-01-27T02:12:11;3.00;43.50
17918;DHT22;9084;50.956;3.106;2024-01-27T02:14:39;3.00;41.30
17918;DHT22;9084;50.956;3.106;2024-01-27T02:17:07;3.00;49.40
17918;DHT22;9084;50.956;3.106;2024-01-27T02:19:38;2.90;54.60
17918;DHT22;9084;50.956;3.106;2024-01-27T02:22:05;3.00;77.50
17918;DHT22;9084;50.956;3.106;2024-01-27T02:24:33;2.90;85.20
17918;DHT22;9084;50.956;3.106;2024-01-27T02:27:01;2.90;81.00
17918;DHT22;9084;50.956;3.106;2024-01-27T02:29:27;2.90;63.00
17918;DHT22;9084;50.956;3.106;2024-01-27T02:31:54;2.90;64.00
17918;DHT22;9084;50.956;3.106;2024-01-27T02:34:22;2.90;54.30
17918;DHT22;9084;50.956;3.106;2024-01-27T02:36:48;2.90;68.30
17918;DHT22;9084;50.956;3.106;2024-01-27T02:39:13;2.90;64.50
17918;DHT22;9084;50.956;3.106;2024-01-27T02:41:42;2.80;71.10
17918;DHT22;9084;50.956;3.106;2024-01-27T02:44:07;2.80;62.50
17918;DHT22;9084;50.956;3.106;2024-01-27T02:46:35;2.80;62.10
17918;DHT22;9084;50.956;3.106;2024-01-27T02:49:03;2.80;53.30
17918;DHT22;9084;50.956;3.106;2024-01-27T02:51:29;2.80;50.70
17918;DHT22;9084;50.956;3.106;2024-01-27T02:53:57;2.80;50.70
17918;DHT22;9084;50.956;3.106;2024-01-27T02:56:22;2.70;41.70
17918;DHT22;9084;50.956;3.106;2024-01-27T02:58:48;2.70;34.40
17918;DHT22;9084;50.956;3.106;2024-01-27T03:01:13;2.70;26.20
17918;DHT22;9084;50.956;3.106;2024-01-27T03:03:39;2.70;18.00
17918;DHT22;9084;50.956;3.106;2024-01-27T03:06:05;2.60;10.80
17918;DHT22;9084;50.956;3.106;2024-01-27T03:08:33;2.60;10.00
17918;DHT22;9084;50.956;3.106;2024-01-27T03:11:01;2.60;13.70
17918;DHT22;9084;50.956;3.106;2024-01-27T03:13:31;2.60;1.00
17918;DHT22;9084;50.956;3.106;2024-01-27T03:15:57;2.50;1.00
17918;DHT22;9084;50.956;3.106;2024-01-27T03:18:25;2.50;1.00
17918;DHT22;9084;50.956;3.106;2024-01-27T03:20:51;2.50;1.00
17918;DHT22;9084;50.956;3.106;2024-01-27T03:23:19;2.50;1.00
17918;DHT22;9084;50.956;3.106;2024-01-27T03:25:47;2.50;1.00
17918;DHT22;9084;50.956;3.106;2024-01-27T03:28:12;2.50;1.00
17918;DHT22;9084;50.956;3.106;2024-01-27T03:30:38;2.50;1.00
17918;DHT22;9084;50.956;3.106;2024-01-27T03:33:04;2.40;1.00
17918;DHT22;9084;50.956;3.106;2024-01-27T03:35:36;2.40;1.00
17918;DHT22;9084;50.956;3.106;2024-01-27T03:38:01;2.30;1.00
17918;DHT22;9084;50.956;3.106;2024-01-27T03:40:29;2.40;1.00
17918;DHT22;9084;50.956;3.106;2024-01-27T03:42:57;2.40;11.50
17918;DHT22;9084;50.956;3.106;2024-01-27T03:45:23;2.40;8.70
17918;DHT22;9084;50.956;3.106;2024-01-27T03:47:48;2.40;11.50
17918;DHT22;9084;50.956;3.106;2024-01-27T03:50:14;2.40;1.00
17918;DHT22;9084;50.956;3.106;2024-01-27T03:52:43;2.40;26.80
17918;DHT22;9084;50.956;3.106;2024-01-27T03:55:12;2.50;56.50
17918;DHT22;9084;50.956;3.106;2024-01-27T03:57:38;2.50;87.10
17918;DHT22;9084;50.956;3.106;2024-01-27T04:00:04;2.50;78.60
17918;DHT22;9084;50.956;3.106;2024-01-27T04:02:29;2.40;60.40
17918;DHT22;9084;50.956;3.106;2024-01-27T04:04:55;2.40;65.60
17918;DHT22;9084;50.956;3.106;2024-01-27T04:07:21;2.50;93.70
17918;DHT22;9084;50.956;3.106;2024-01-27T04:09:46;2.50;99.90
17918;DHT22;9084;50.956;3.106;2024-01-27T04:12:14;2.50;99.90
17918;DHT22;9084;50.956;3.106;2024-01-27T04:14:42;2.50;99.90
17918;DHT22;9084;50.956;3.106;2024-01-27T04:17:10;2.50;99.90
17918;DHT22;9084;50.956;3.106;2024-01-27T04:19:36;2.50;99.90
17918;DHT22;9084;50.956;3.106;2024-01-27T04:22:02;2.50;99.90
17918;DHT22;9084;50.956;3.106;2024-01-27T04:24:30;2.50;99.90
17918;DHT22;9084;50.956;3.106;2024-01-27T04:26:56;2.60;99.90
17918;DHT22;9084;50.956;3.106;2024-01-27T04:29:22;2.60;99.90
17918;DHT22;9084;50.956;3.106;2024-01-27T04:31:48;2.60;99.90
17918;DHT22;9084;50.956;3.106;2024-01-27T04:34:13;2.60;99.90
17918;DHT22;9084;50.956;3.106;2024-01-27T04:36:39;2.60;99.90
17918;DHT22;9084;50.956;3.106;2024-01-27T04:39:09;2.60;99.90
17918;DHT22;9084;50.956;3.106;2024-01-27T04:41:42;2.50;99.90
17918;DHT22;9084;50.956;3.106;2024-01-27T04:44:08;2.50;99.90
17918;DHT22;9084;50.956;3.106;2024-01-27T04:46:36;2.50;99.90
17918;DHT22;9084;50.956;3.106;2024-01-27T04:49:02;2.50;99.90
17918;DHT22;9084;50.956;3.106;2024-01-27T04:51:27;2.60;99.90
17918;DHT22;9084;50.956;3.106;2024-01-27T04:53:55;2.50;99.90
17918;DHT22;9084;50.956;3.106;2024-01-27T04:56:23;2.50;99.90
17918;DHT22;9084;50.956;3.106;2024-01-27T04:58:51;2.40;99.90
17918;DHT22;9084;50.956;3.106;2024-01-27T05:01:19;2.40;99.90
17918;DHT22;9084;50.956;3.106;2024-01-27T05:03:47;2.40;99.90
17918;DHT22;9084;50.956;3.106;2024-01-27T05:06:13;2.60;99.90
17918;DHT22;9084;50.956;3.106;2024-01-27T05:08:41;2.40;99.90
17918;DHT22;9084;50.956;3.106;2024-01-27T05:11:09;2.40;99.90
17918;DHT22;9084;50.956;3.106;2024-01-27T05:13:37;2.40;99.90
17918;DHT22;9084;50.956;3.106;2024-01-27T05:16:04;2.30;98.90
17918;DHT22;9084;50.956;3.106;2024-01-27T05:18:30;2.30;76.10
17918;DHT22;9084;50.956;3.106;2024-01-27T05:20:58;2.30;59.80
17918;DHT22;9084;50.956;3.106;2024-01-27T05:23:26;2.20;48.60
17918;DHT22;9084;50.956;3.106;2024-01-27T05:25:54;2.20;40.70
17918;DHT22;9084;50.956;3.106;2024-01-27T05:28:25;2.10;21.40
17918;DHT22;9084;50.956;3.106;2024-01-27T05:30:53;2.10;24.00
17918;DHT22;9084;50.956;3.106;2024-01-27T05:33:21;2.10;30.00
17918;DHT22;9084;50.956;3.106;2024-01-27T05:35:48;2.10;34.60
17918;DHT22;9084;50.956;3.106;2024-01-27T05:38:19;2.10;37.10
17918;DHT22;9084;50.956;3.106;2024-01-27T05:40:44;2.10;70.60
17918;DHT22;9084;50.956;3.106;2024-01-27T05:43:10;2.10;87.30
17918;DHT22;9084;50.956;3.106;2024-01-27T05:45:36;2.10;94.30
17918;DHT22;9084;50.956;3.106;2024-01-27T05:48:02;2.10;97.00
17918;DHT22;9084;50.956;3.106;2024-01-27T05:50:30;2.10;99.90
17918;DHT22;9084;50.956;3.106;2024-01-27T05:52:59;2.10;99.90
17918;DHT22;9084;50.956;3.106;2024-01-27T05:55:25;2.10;99.90
17918;DHT22;9084;50.956;3.106;2024-01-27T05:57:50;2.10;99.90
17918;DHT22;9084;50.956;3.106;2024-01-27T06:00:16;2.10;99.90
17918;DHT22;9084;50.956;3.106;2024-01-27T06:02:44;2.10;99.90
17918;DHT22;9084;50.956;3.106;2024-01-27T06:05:13;2.10;99.90
17918;DHT22;9084;50.956;3.106;2024-01-27T06:07:38;2.10;99.90
17918;DHT22;9084;50.956;3.106;2024-01-27T06:10:08;2.10;99.90
17918;DHT22;9084;50.956;3.106;2024-01-27T06:12:34;2.10;99.90
17918;DHT22;9084;50.956;3.106;2024-01-27T06:15:02;2.10;99.90
17918;DHT22;9084;50.956;3.106;2024-01-27T06:17:28;2.10;99.90
17918;DHT22;9084;50.956;3.106;2024-01-27T06:19:54;2.10;99.90
17918;DHT22;9084;50.956;3.106;2024-01-27T06:22:22;2.20;99.90
17918;DHT22;9084;50.956;3.106;2024-01-27T06:24:50;2.20;99.90
17918;DHT22;9084;50.956;3.106;2024-01-27T06:27:15;2.20;99.90
17918;DHT22;9084;50.956;3.106;2024-01-27T06:29:43;2.20;99.90
17918;DHT22;9084;50.956;3.106;2024-01-27T06:32:09;2.20;99.90
17918;DHT22;9084;50.956;3.106;2024-01-27T06:34:35;2.20;99.90
17918;DHT22;9084;50.956;3.106;2024-01-27T06:37:00;2.20;99.90
17918;DHT22;9084;50.956;3.106;2024-01-27T06:39:26;2.20;99.90
17918;DHT22;9084;50.956;3.106;2024-01-27T06:41:52;2.20;99.90
17918;DHT22;9084;50.956;3.106;2024-01-27T06:44:18;2.20;99.90
17918;DHT22;9084;50.956;3.106;2024-01-27T06:46:43;2.20;99.90
17918;DHT22;9084;50.956;3.106;2024-01-27T06:49:11;2.10;99.90
17918;DHT22;9084;50.956;3.106;2024-01-27T06:51:39;2.20;99.90
17918;DHT22;9084;50.956;3.106;2024-01-27T06:54:04;2.10;99.90
17918;DHT22;9084;50.956;3.106;2024-01-27T06:56:32;2.10;99.90
17918;DHT22;9084;50.956;3.106;2024-01-27T06:58:58;2.10;99.90
17918;DHT22;9084;50.956;3.106;2024-01-27T07:01:26;2.10;99.90
17918;DHT22;9084;50.956;3.106;2024-01-27T07:03:52;2.10;99.90
17918;DHT22;9084;50.956;3.106;2024-01-27T07:06:17;2.10;99.90
17918;DHT22;9084;50.956;3.106;2024-01-27T07:08:43;2.10;99.90
17918;DHT22;9084;50.956;3.106;2024-01-27T07:11:09;2.10;99.90
17918;DHT22;9084;50.956;3.106;2024-01-27T07:13:34;2.00;99.90
17918;DHT22;9084;50.956;3.106;2024-01-27T07:16:00;2.00;99.90
17918;DHT22;9084;50.956;3.106;2024-01-27T07:18:30;2.00;99.90
17918;DHT22;9084;50.956;3.106;2024-01-27T07:20:58;2.00;99.90
17918;DHT22;9084;50.956;3.106;2024-01-27T07:23:29;2.10;99.90
17918;DHT22;9084;50.956;3.106;2024-01-27T07:25:54;2.00;99.90
17918;DHT22;9084;50.956;3.106;2024-01-27T07:28:20;2.10;99.90
17918;DHT22;9084;50.956;3.106;2024-01-27T07:30:48;2.10;99.90
17918;DHT22;9084;50.956;3.106;2024-01-27T07:33:13;2.00;99.90
17918;DHT22;9084;50.956;3.106;2024-01-27T07:35:42;2.10;99.90
17918;DHT22;9084;50.956;3.106;2024-01-27T07:38:10;2.00;99.90
17918;DHT22;9084;50.956;3.106;2024-01-27T07:40:40;2.00;99.90
17918;DHT22;9084;50.956;3.106;2024-01-27T07:43:08;2.00;99.90
17918;DHT22;9084;50.956;3.106;2024-01-27T07:45:34;2.00;99.90
17918;DHT22;9084;50.956;3.106;2024-01-27T07:47:59;2.00;99.90
17918;DHT22;9084;50.956;3.106;2024-01-27T07:50:30;2.00;99.90
17918;DHT22;9084;50.956;3.106;2024-01-27T07:52:58;2.10;99.90
17918;DHT22;9084;50.956;3.106;2024-01-27T07:55:24;2.10;99.90
17918;DHT22;9084;50.956;3.106;2024-01-27T07:57:52;2.20;99.90
17918;DHT22;9084;50.956;3.106;2024-01-27T08:00:18;2.40;99.90
17918;DHT22;9084;50.956;3.106;2024-01-27T08:02:43;2.30;99.90
17918;DHT22;9084;50.956;3.106;2024-01-27T08:05:09;2.30;99.90
17918;DHT22;9084;50.956;3.106;2024-01-27T08:07:37;2.30;99.90
17918;DHT22;9084;50.956;3.106;2024-01-27T08:10:03;2.40;99.90
17918;DHT22;9084;50.956;3.106;2024-01-27T08:12:32;2.40;99.90
17918;DHT22;9084;50.956;3.106;2024-01-27T08:14:58;2.40;99.90
17918;DHT22;9084;50.956;3.106;2024-01-27T08:17:26;2.40;99.90
17918;DHT22;9084;50.956;3.106;2024-01-27T08:19:51;2.50;99.90
17918;DHT22;9084;50.956;3.106;2024-01-27T08:22:21;2.50;99.90
17918;DHT22;9084;50.956;3.106;2024-01-27T08:24:47;2.60;99.90
17918;DHT22;9084;50.956;3.106;2024-01-27T08:27:15;2.70;99.90
17918;DHT22;9084;50.956;3.106;2024-01-27T08:29:40;2.70;99.90
17918;DHT22;9084;50.956;3.106;2024-01-27T08:32:06;2.70;99.90
17918;DHT22;9084;50.956;3.106;2024-01-27T08:34:32;2.80;99.90
17918;DHT22;9084;50.956;3.106;2024-01-27T08:37:00;2.80;99.90
17918;DHT22;9084;50.956;3.106;2024-01-27T08:39:26;2.90;99.90
17918;DHT22;9084;50.956;3.106;2024-01-27T08:41:51;2.90;99.90
17918;DHT22;9084;50.956;3.106;2024-01-27T08:44:19;3.00;99.90
17918;DHT22;9084;50.956;3.106;2024-01-27T08:46:48;3.00;99.90
17918;DHT22;9084;50.956;3.106;2024-01-27T08:49:14;3.10;99.90
17918;DHT22;9084;50.956;3.106;2024-01-27T08:51:40;3.10;99.90
17918;DHT22;9084;50.956;3.106;2024-01-27T08:54:08;3.10;99.90
17918;DHT22;9084;50.956;3.106;2024-01-27T08:56:39;3.20;99.90
17918;DHT22;9084;50.956;3.106;2024-01-27T08:59:10;3.30;99.90
17918;DHT22;9084;50.956;3.106;2024-01-27T09:01:36;3.30;99.90
17918;DHT22;9084;50.956;3.106;2024-01-27T09:04:02;3.40;99.90
17918;DHT22;9084;50.956;3.106;2024-01-27T09:06:32;3.40;99.90
17918;DHT22;9084;50.956;3.106;2024-01-27T09:08:57;3.40;99.90
17918;DHT22;9084;50.956;3.106;2024-01-27T09:11:26;3.50;99.90
17918;DHT22;9084;50.956;3.106;2024-01-27T09:13:55;3.50;99.90
17918;DHT22;9084;50.956;3.106;2024-01-27T09:16:22;3.60;99.90
17918;DHT22;9084;50.956;3.106;2024-01-27T09:18:47;3.70;99.90
17918;DHT22;9084;50.956;3.106;2024-01-27T09:21:16;3.80;99.90
17918;DHT22;9084;50.956;3.106;2024-01-27T09:23:46;3.90;99.90
17918;DHT22;9084;50.956;3.106;2024-01-27T09:26:15;4.00;99.90
17918;DHT22;9084;50.956;3.106;2024-01-27T09:28:43;4.10;99.90
17918;DHT22;9084;50.956;3.106;2024-01-27T09:31:20;4.20;99.90
17918;DHT22;9084;50.956;3.106;2024-01-27T09:33:49;4.20;99.90
17918;DHT22;9084;50.956;3.106;2024-01-27T09:36:17;4.20;99.90
17918;DHT22;9084;50.956;3.106;2024-01-27T09:38:42;4.20;99.90
17918;DHT22;9084;50.956;3.106;2024-01-27T09:41:08;4.30;99.90
17918;DHT22;9084;50.956;3.106;2024-01-27T09:43:35;4.30;99.90
17918;DHT22;9084;50.956;3.106;2024-01-27T09:46:03;4.30;99.90
17918;DHT22;9084;50.956;3.106;2024-01-27T09:48:29;4.40;99.90
17918;DHT22;9084;50.956;3.106;2024-01-27T09:50:58;4.40;99.90
17918;DHT22;9084;50.956;3.106;2024-01-27T09:53:26;4.40;99.90
17918;DHT22;9084;50.956;3.106;2024-01-27T09:55:51;4.50;99.90
17918;DHT22;9084;50.956;3.106;2024-01-27T09:58:19;4.50;99.90
17918;DHT22;9084;50.956;3.106;2024-01-27T10:00:45;4.50;99.90
17918;DHT22;9084;50.956;3.106;2024-01-27T10:03:13;4.50;99.90
17918;DHT22;9084;50.956;3.106;2024-01-27T10:05:39;4.60;99.90
17918;DHT22;9084;50.956;3.106;2024-01-27T10:08:07;4.60;99.90
17918;DHT22;9084;50.956;3.106;2024-01-27T10:10:36;4.60;99.90
17918;DHT22;9084;50.956;3.106;2024-01-27T10:13:04;4.70;99.90
17918;DHT22;9084;50.956;3.106;2024-01-27T10:15:34;4.70;99.90
17918;DHT22;9084;50.956;3.106;2024-01-27T10:18:07;4.70;99.90
17918;DHT22;9084;50.956;3.106;2024-01-27T10:20:33;4.80;99.90
17918;DHT22;9084;50.956;3.106;2024-01-27T10:23:13;4.80;99.90
17918;DHT22;9084;50.956;3.106;2024-01-27T10:25:39;4.90;99.90
17918;DHT22;9084;50.956;3.106;2024-01-27T10:28:07;5.00;99.90
17918;DHT22;9084;50.956;3.106;2024-01-27T10:30:36;5.00;99.90
17918;DHT22;9084;50.956;3.106;2024-01-27T10:33:02;5.00;99.90
17918;DHT22;9084;50.956;3.106;2024-01-27T10:35:31;5.10;99.90
17918;DHT22;9084;50.956;3.106;2024-01-27T10:37:59;5.10;99.90
17918;DHT22;9084;50.956;3.106;2024-01-27T10:40:24;5.20;99.90
17918;DHT22;9084;50.956;3.106;2024-01-27T10:43:07;5.30;99.90
17918;DHT22;9084;50.956;3.106;2024-01-27T10:45:40;5.40;99.90
17918;DHT22;9084;50.956;3.106;2024-01-27T10:48:08;5.40;99.90
17918;DHT22;9084;50.956;3.106;2024-01-27T10:50:38;5.50;99.90
17918;DHT22;9084;50.956;3.106;2024-01-27T10:53:05;5.60;99.90
17918;DHT22;9084;50.956;3.106;2024-01-27T10:55:34;5.70;99.90
17918;DHT22;9084;50.956;3.106;2024-01-27T10:58:05;5.80;99.90
17918;DHT22;9084;50.956;3.106;2024-01-27T11:00:31;5.90;99.90
17918;DHT22;9084;50.956;3.106;2024-01-27T11:02:59;6.00;99.90
17918;DHT22;9084;50.956;3.106;2024-01-27T11:05:24;6.00;99.90
17918;DHT22;9084;50.956;3.106;2024-01-27T11:07:53;6.10;99.90
17918;DHT22;9084;50.956;3.106;2024-01-27T11:10:18;6.30;99.90
17918;DHT22;9084;50.956;3.106;2024-01-27T11:12:48;6.40;99.90
17918;DHT22;9084;50.956;3.106;2024-01-27T11:15:14;6.50;99.90
17918;DHT22;9084;50.956;3.106;2024-01-27T11:17:40;6.50;99.90
17918;DHT22;9084;50.956;3.106;2024-01-27T11:20:10;6.60;99.90
17918;DHT22;9084;50.956;3.106;2024-01-27T11:22:37;6.60;99.90
17918;DHT22;9084;50.956;3.106;2024-01-27T11:27:42;6.60;98.00
17918;DHT22;9084;50.956;3.106;2024-01-27T11:30:31;6.60;99.90
17918;DHT22;9084;50.956;3.106;2024-01-27T11:33:02;6.60;99.90
17918;DHT22;9084;50.956;3.106;2024-01-27T11:35:28;6.60;99.90
17918;DHT22;9084;50.956;3.106;2024-01-27T11:37:54;6.60;97.00
17918;DHT22;9084;50.956;3.106;2024-01-27T11:40:22;6.70;66.70
17918;DHT22;9084;50.956;3.106;2024-01-27T11:42:59;6.70;33.60
17918;DHT22;9084;50.956;3.106;2024-01-27T11:45:28;6.80;24.60
17918;DHT22;9084;50.956;3.106;2024-01-27T11:47:56;6.80;13.30
17918;DHT22;9084;50.956;3.106;2024-01-27T11:50:24;6.80;1.00
17918;DHT22;9084;50.956;3.106;2024-01-27T11:52:53;6.90;1.00
17918;DHT22;9084;50.956;3.106;2024-01-27T11:55:21;7.00;1.00
17918;DHT22;9084;50.956;3.106;2024-01-27T11:57:47;7.10;1.00
17918;DHT22;9084;50.956;3.106;2024-01-27T12:00:13;7.10;1.00
17918;DHT22;9084;50.956;3.106;2024-01-27T12:02:41;7.20;1.00
17918;DHT22;9084;50.956;3.106;2024-01-27T12:05:08;7.30;1.00
17918;DHT22;9084;50.956;3.106;2024-01-27T12:07:33;7.40;1.00
17918;DHT22;9084;50.956;3.106;2024-01-27T12:09:59;7.40;1.00
17918;DHT22;9084;50.956;3.106;2024-01-27T12:12:27;7.60;1.00
17918;DHT22;9084;50.956;3.106;2024-01-27T12:14:53;7.70;1.00
17918;DHT22;9084;50.956;3.106;2024-01-27T12:17:22;7.80;1.00
17918;DHT22;9084;50.956;3.106;2024-01-27T12:19:53;7.90;1.00
17918;DHT22;9084;50.956;3.106;2024-01-27T12:22:27;8.00;1.00
17918;DHT22;9084;50.956;3.106;2024-01-27T12:24:54;8.10;1.00
17918;DHT22;9084;50.956;3.106;2024-01-27T12:27:20;8.10;1.00
17918;DHT22;9084;50.956;3.106;2024-01-27T12:29:49;8.20;1.00
17918;DHT22;9084;50.956;3.106;2024-01-27T12:32:15;8.30;99.90
17918;DHT22;9084;50.956;3.106;2024-01-27T12:34:42;8.40;99.90
17918;DHT22;9084;50.956;3.106;2024-01-27T12:37:08;8.50;99.90
17918;DHT22;9084;50.956;3.106;2024-01-27T12:39:36;8.60;99.90
17918;DHT22;9084;50.956;3.106;2024-01-27T12:42:02;8.70;1.00
17918;DHT22;9084;50.956;3.106;2024-01-27T12:44:27;8.80;1.00
17918;DHT22;9084;50.956;3.106;2024-01-27T12:46:56;8.80;1.00
17918;DHT22;9084;50.956;3.106;2024-01-27T12:49:22;8.90;1.00
17918;DHT22;9084;50.956;3.106;2024-01-27T12:51:53;8.90;1.00
17918;DHT22;9084;50.956;3.106;2024-01-27T12:54:18;9.00;1.00
17918;DHT22;9084;50.956;3.106;2024-01-27T12:56:47;9.00;99.90
17918;DHT22;9084;50.956;3.106;2024-01-27T12:59:15;9.00;99.90
17918;DHT22;9084;50.956;3.106;2024-01-27T13:01:43;9.00;99.90
17918;DHT22;9084;50.956;3.106;2024-01-27T13:04:09;9.00;99.90
17918;DHT22;9084;50.956;3.106;2024-01-27T13:06:34;9.00;1.00
17918;DHT22;9084;50.956;3.106;2024-01-27T13:09:00;9.00;1.00
17918;DHT22;9084;50.956;3.106;2024-01-27T13:11:26;9.00;1.00
17918;DHT22;9084;50.956;3.106;2024-01-27T13:13:54;9.00;1.00
17918;DHT22;9084;50.956;3.106;2024-01-27T13:16:22;9.10;1.00
17918;DHT22;9084;50.956;3.106;2024-01-27T13:18:47;9.10;1.00
17918;DHT22;9084;50.956;3.106;2024-01-27T13:21:13;9.10;1.00
17918;DHT22;9084;50.956;3.106;2024-01-27T13:23:41;9.10;1.00
17918;DHT22;9084;50.956;3.106;2024-01-27T13:26:09;9.10;1.00
17918;DHT22;9084;50.956;3.106;2024-01-27T13:28:37;9.00;1.00
17918;DHT22;9084;50.956;3.106;2024-01-27T13:31:05;9.00;1.00
17918;DHT22;9084;50.956;3.106;2024-01-27T13:33:32;9.00;1.00
17918;DHT22;9084;50.956;3.106;2024-01-27T13:35:59;8.90;1.00
17918;DHT22;9084;50.956;3.106;2024-01-27T13:38:27;8.90;1.00
17918;DHT22;9084;50.956;3.106;2024-01-27T13:40:55;8.80;99.90
17918;DHT22;9084;50.956;3.106;2024-01-27T13:43:21;8.70;99.90
17918;DHT22;9084;50.956;3.106;2024-01-27T13:45:48;8.70;1.00
17918;DHT22;9084;50.956;3.106;2024-01-27T13:48:14;8.70;1.00
17918;DHT22;9084;50.956;3.106;2024-01-27T13:50:41;8.60;1.00
17918;DHT22;9084;50.956;3.106;2024-01-27T13:53:06;8.50;1.00
17918;DHT22;9084;50.956;3.106;2024-01-27T13:55:35;8.50;99.90
17918;DHT22;9084;50.956;3.106;2024-01-27T13:58:01;8.50;99.90
17918;DHT22;9084;50.956;3.106;2024-01-27T14:00:26;8.50;99.90
17918;DHT22;9084;50.956;3.106;2024-01-27T14:02:54;8.60;99.90
17918;DHT22;9084;50.956;3.106;2024-01-27T14:05:20;8.60;99.90
17918;DHT22;9084;50.956;3.106;2024-01-27T14:07:48;8.60;1.00
17918;DHT22;9084;50.956;3.106;2024-01-27T14:10:16;8.50;1.00
17918;DHT22;9084;50.956;3.106;2024-01-27T14:12:41;8.50;40.40
17918;DHT22;9084;50.956;3.106;2024-01-27T14:15:08;8.60;99.90
17918;DHT22;9084;50.956;3.106;2024-01-27T14:17:37;8.60;24.70
17918;DHT22;9084;50.956;3.106;2024-01-27T14:20:03;8.60;1.00
17918;DHT22;9084;50.956;3.106;2024-01-27T14:22:34;8.60;1.00
17918;DHT22;9084;50.956;3.106;2024-01-27T14:25:00;8.60;99.90
17918;DHT22;9084;50.956;3.106;2024-01-27T14:27:26;8.50;99.90
17918;DHT22;9084;50.956;3.106;2024-01-27T14:29:53;8.50;99.90
17918;DHT22;9084;50.956;3.106;2024-01-27T14:32:22;8.60;1.00
17918;DHT22;9084;50.956;3.106;2024-01-27T14:34:48;8.50;1.00
17918;DHT22;9084;50.956;3.106;2024-01-27T14:37:15;8.50;1.00
17918;DHT22;9084;50.956;3.106;2024-01-27T14:39:47;8.50;99.90
17918;DHT22;9084;50.956;3.106;2024-01-27T14:42:14;8.50;73.00
17918;DHT22;9084;50.956;3.106;2024-01-27T14:44:40;8.50;99.90
17918;DHT22;9084;50.956;3.106;2024-01-27T14:47:10;8.50;1.00
17918;DHT22;9084;50.956;3.106;2024-01-27T14:49:36;8.40;1.00
17918;DHT22;9084;50.956;3.106;2024-01-27T14:52:06;8.40;1.00
17918;DHT22;9084;50.956;3.106;2024-01-27T14:54:35;8.50;1.00
17918;DHT22;9084;50.956;3.106;2024-01-27T14:57:07;8.50;1.00
17918;DHT22;9084;50.956;3.106;2024-01-27T14:59:37;8.50;1.00
17918;DHT22;9084;50.956;3.106;2024-01-27T15:02:04;8.50;1.00
17918;DHT22;9084;50.956;3.106;2024-01-27T15:04:33;8.50;1.00
17918;DHT22;9084;50.956;3.106;2024-01-27T15:06:59;8.50;1.00
17918;DHT22;9084;50.956;3.106;2024-01-27T15:09:25;8.40;1.00
17918;DHT22;9084;50.956;3.106;2024-01-27T15:11:53;8.40;99.90
17918;DHT22;9084;50.956;3.106;2024-01-27T15:14:18;8.30;1.00
17918;DHT22;9084;50.956;3.106;2024-01-27T15:16:49;8.20;1.00
17918;DHT22;9084;50.956;3.106;2024-01-27T15:19:15;8.20;1.00
17918;DHT22;9084;50.956;3.106;2024-01-27T15:21:40;8.10;1.00
17918;DHT22;9084;50.956;3.106;2024-01-27T15:24:08;8.00;1.00
17918;DHT22;9084;50.956;3.106;2024-01-27T15:26:39;7.90;1.00
17918;DHT22;9084;50.956;3.106;2024-01-27T15:29:04;7.90;1.00
17918;DHT22;9084;50.956;3.106;2024-01-27T15:31:33;7.80;6.90
17918;DHT22;9084;50.956;3.106;2024-01-27T15:34:01;7.80;99.90
17918;DHT22;9084;50.956;3.106;2024-01-27T15:36:28;7.70;99.90
17918;DHT22;9084;50.956;3.106;2024-01-27T15:38:56;7.70;1.00
17918;DHT22;9084;50.956;3.106;2024-01-27T15:41:24;7.60;99.90
17918;DHT22;9084;50.956;3.106;2024-01-27T15:43:52;7.60;99.90
17918;DHT22;9084;50.956;3.106;2024-01-27T15:46:18;7.60;99.90
17918;DHT22;9084;50.956;3.106;2024-01-27T15:48:43;7.50;99.90
17918;DHT22;9084;50.956;3.106;2024-01-27T15:51:09;7.50;1.00
17918;DHT22;9084;50.956;3.106;2024-01-27T15:53:35;7.40;1.00
17918;DHT22;9084;50.956;3.106;2024-01-27T15:56:00;7.30;1.00
17918;DHT22;9084;50.956;3.106;2024-01-27T15:58:26;7.30;1.00
17918;DHT22;9084;50.956;3.106;2024-01-27T16:00:51;7.20;1.00
17918;DHT22;9084;50.956;3.106;2024-01-27T16:03:17;7.10;1.00
17918;DHT22;9084;50.956;3.106;2024-01-27T16:05:43;7.00;1.00
17918;DHT22;9084;50.956;3.106;2024-01-27T16:08:08;6.90;12.40
17918;DHT22;9084;50.956;3.106;2024-01-27T16:10:38;6.80;99.90